sensor_id;sensor_type;location;lat;lon;timestamp;P1;durP1;ratioP1;P2;durP2;ratioP2
10031;SDS011;5056;44.272;19.892;2023-08-07T00:01:47;2.17;;;1.95;;
10031;SDS011;5056;44.272;19.892;2023-08-07T00:04:17;2.00;;;1.90;;
10031;SDS011;5056;44.272;19.892;2023-08-07T00:06:44;2.42;;;2.22;;
10031;SDS011;5056;44.272;19.892;2023-08-07T00:09:11;4.10;;;2.65;;
10031;SDS011;5056;44.272;19.892;2023-08-07T00:11:41;3.70;;;1.92;;
10031;SDS011;5056;44.272;19.892;2023-08-07T00:14:07;2.17;;;1.95;;
10031;SDS011;5056;44.272;19.892;2023-08-07T00:16:35;2.05;;;1.95;;
10031;SDS011;5056;44.272;19.892;2023-08-07T00:19:04;2.38;;;1.60;;
10031;SDS011;5056;44.272;19.892;2023-08-07T00:21:31;2.45;;;2.35;;
10031;SDS011;5056;44.272;19.892;2023-08-07T00:24:00;5.53;;;2.20;;
10031;SDS011;5056;44.272;19.892;2023-08-07T00:26:27;2.17;;;2.00;;
10031;SDS011;5056;44.272;19.892;2023-08-07T00:28:59;1.85;;;1.75;;
10031;SDS011;5056;44.272;19.892;2023-08-07T00:34:06;4.13;;;1.77;;
10031;SDS011;5056;44.272;19.892;2023-08-07T00:36:34;1.70;;;1.60;;
10031;SDS011;5056;44.272;19.892;2023-08-07T00:39:01;1.50;;;1.40;;
10031;SDS011;5056;44.272;19.892;2023-08-07T00:41:28;4.47;;;1.27;;
10031;SDS011;5056;44.272;19.892;2023-08-07T00:43:55;1.40;;;1.30;;
10031;SDS011;5056;44.272;19.892;2023-08-07T00:46:24;1.92;;;1.88;;
10031;SDS011;5056;44.272;19.892;2023-08-07T00:48:52;1.55;;;1.17;;
10031;SDS011;5056;44.272;19.892;2023-08-07T00:51:19;1.77;;;1.67;;
10031;SDS011;5056;44.272;19.892;2023-08-07T00:53:47;2.28;;;1.98;;
10031;SDS011;5056;44.272;19.892;2023-08-07T00:56:16;2.17;;;2.05;;
10031;SDS011;5056;44.272;19.892;2023-08-07T01:02:07;2.38;;;2.20;;
10031;SDS011;5056;44.272;19.892;2023-08-07T01:04:34;2.78;;;2.17;;
10031;SDS011;5056;44.272;19.892;2023-08-07T01:07:00;3.30;;;1.90;;
10031;SDS011;5056;44.272;19.892;2023-08-07T01:09:28;3.00;;;2.65;;
10031;SDS011;5056;44.272;19.892;2023-08-07T01:11:55;2.28;;;2.17;;
10031;SDS011;5056;44.272;19.892;2023-08-07T01:14:35;2.15;;;2.05;;
10031;SDS011;5056;44.272;19.892;2023-08-07T01:17:08;2.65;;;2.17;;
10031;SDS011;5056;44.272;19.892;2023-08-07T01:19:36;1.60;;;1.55;;
10031;SDS011;5056;44.272;19.892;2023-08-07T01:22:05;2.10;;;1.90;;
10031;SDS011;5056;44.272;19.892;2023-08-07T01:24:33;2.95;;;2.13;;
10031;SDS011;5056;44.272;19.892;2023-08-07T01:27:02;2.88;;;1.80;;
10031;SDS011;5056;44.272;19.892;2023-08-07T01:29:51;2.03;;;1.90;;
10031;SDS011;5056;44.272;19.892;2023-08-07T01:32:21;2.00;;;1.45;;
10031;SDS011;5056;44.272;19.892;2023-08-07T01:34:51;2.53;;;1.45;;
10031;SDS011;5056;44.272;19.892;2023-08-07T01:37:20;1.63;;;1.52;;
10031;SDS011;5056;44.272;19.892;2023-08-07T01:40:04;2.17;;;1.58;;
10031;SDS011;5056;44.272;19.892;2023-08-07T01:42:36;1.65;;;1.55;;
10031;SDS011;5056;44.272;19.892;2023-08-07T01:45:21;1.75;;;1.17;;
10031;SDS011;5056;44.272;19.892;2023-08-07T01:47:49;1.58;;;1.45;;
10031;SDS011;5056;44.272;19.892;2023-08-07T01:50:16;3.10;;;1.67;;
10031;SDS011;5056;44.272;19.892;2023-08-07T01:52:45;1.60;;;1.60;;
10031;SDS011;5056;44.272;19.892;2023-08-07T01:55:13;1.97;;;1.77;;
10031;SDS011;5056;44.272;19.892;2023-08-07T01:57:41;2.27;;;1.70;;
10031;SDS011;5056;44.272;19.892;2023-08-07T02:00:16;1.60;;;1.50;;
10031;SDS011;5056;44.272;19.892;2023-08-07T02:02:43;1.67;;;1.58;;
10031;SDS011;5056;44.272;19.892;2023-08-07T02:05:12;1.20;;;1.20;;
10031;SDS011;5056;44.272;19.892;2023-08-07T02:07:40;3.03;;;2.00;;
10031;SDS011;5056;44.272;19.892;2023-08-07T02:10:10;1.48;;;1.38;;
10031;SDS011;5056;44.272;19.892;2023-08-07T02:12:38;1.27;;;1.23;;
10031;SDS011;5056;44.272;19.892;2023-08-07T02:15:21;1.30;;;1.30;;
10031;SDS011;5056;44.272;19.892;2023-08-07T02:17:50;3.45;;;1.63;;
10031;SDS011;5056;44.272;19.892;2023-08-07T02:20:17;2.80;;;1.40;;
10031;SDS011;5056;44.272;19.892;2023-08-07T02:22:46;1.52;;;1.42;;
10031;SDS011;5056;44.272;19.892;2023-08-07T02:25:16;1.40;;;1.30;;
10031;SDS011;5056;44.272;19.892;2023-08-07T02:27:44;1.65;;;1.55;;
10031;SDS011;5056;44.272;19.892;2023-08-07T02:30:12;1.50;;;1.37;;
10031;SDS011;5056;44.272;19.892;2023-08-07T02:32:39;2.40;;;1.50;;
10031;SDS011;5056;44.272;19.892;2023-08-07T02:38:00;1.23;;;1.23;;
10031;SDS011;5056;44.272;19.892;2023-08-07T02:40:29;1.40;;;1.40;;
10031;SDS011;5056;44.272;19.892;2023-08-07T02:42:56;2.27;;;1.77;;
10031;SDS011;5056;44.272;19.892;2023-08-07T02:45:25;1.60;;;1.50;;
10031;SDS011;5056;44.272;19.892;2023-08-07T02:47:52;2.47;;;2.00;;
10031;SDS011;5056;44.272;19.892;2023-08-07T02:50:21;2.60;;;1.90;;
10031;SDS011;5056;44.272;19.892;2023-08-07T02:52:50;3.75;;;1.75;;
10031;SDS011;5056;44.272;19.892;2023-08-07T02:55:17;1.30;;;1.30;;
10031;SDS011;5056;44.272;19.892;2023-08-07T02:57:46;2.67;;;1.70;;
10031;SDS011;5056;44.272;19.892;2023-08-07T03:00:14;2.60;;;1.38;;
10031;SDS011;5056;44.272;19.892;2023-08-07T03:02:41;1.50;;;1.40;;
10031;SDS011;5056;44.272;19.892;2023-08-07T03:05:08;5.85;;;1.23;;
10031;SDS011;5056;44.272;19.892;2023-08-07T03:07:35;1.08;;;1.08;;
10031;SDS011;5056;44.272;19.892;2023-08-07T03:10:02;1.30;;;1.20;;
10031;SDS011;5056;44.272;19.892;2023-08-07T03:12:29;3.05;;;1.50;;
10031;SDS011;5056;44.272;19.892;2023-08-07T03:14:59;1.53;;;1.50;;
10031;SDS011;5056;44.272;19.892;2023-08-07T03:17:25;2.70;;;1.67;;
10031;SDS011;5056;44.272;19.892;2023-08-07T03:19:52;2.58;;;1.73;;
10031;SDS011;5056;44.272;19.892;2023-08-07T03:22:23;1.60;;;1.50;;
10031;SDS011;5056;44.272;19.892;2023-08-07T03:24:50;4.32;;;2.13;;
10031;SDS011;5056;44.272;19.892;2023-08-07T03:27:18;1.40;;;1.30;;
10031;SDS011;5056;44.272;19.892;2023-08-07T03:29:45;2.37;;;1.30;;
10031;SDS011;5056;44.272;19.892;2023-08-07T03:32:13;2.20;;;1.60;;
10031;SDS011;5056;44.272;19.892;2023-08-07T03:34:40;1.55;;;1.42;;
10031;SDS011;5056;44.272;19.892;2023-08-07T03:37:07;2.63;;;1.63;;
10031;SDS011;5056;44.272;19.892;2023-08-07T03:39:34;2.60;;;1.90;;
10031;SDS011;5056;44.272;19.892;2023-08-07T03:42:01;2.50;;;1.80;;
10031;SDS011;5056;44.272;19.892;2023-08-07T03:44:29;1.77;;;1.48;;
10031;SDS011;5056;44.272;19.892;2023-08-07T03:46:56;2.40;;;1.67;;
10031;SDS011;5056;44.272;19.892;2023-08-07T03:49:25;1.50;;;1.40;;
10031;SDS011;5056;44.272;19.892;2023-08-07T03:51:52;1.60;;;1.50;;
10031;SDS011;5056;44.272;19.892;2023-08-07T03:54:19;3.40;;;1.50;;
10031;SDS011;5056;44.272;19.892;2023-08-07T03:56:46;1.70;;;1.60;;
10031;SDS011;5056;44.272;19.892;2023-08-07T03:59:13;1.60;;;1.50;;
10031;SDS011;5056;44.272;19.892;2023-08-07T04:01:40;1.87;;;1.57;;
10031;SDS011;5056;44.272;19.892;2023-08-07T04:04:10;2.00;;;1.90;;
10031;SDS011;5056;44.272;19.892;2023-08-07T04:06:39;3.03;;;2.20;;
10031;SDS011;5056;44.272;19.892;2023-08-07T04:09:05;4.32;;;1.80;;
10031;SDS011;5056;44.272;19.892;2023-08-07T04:11:33;4.25;;;1.50;;
10031;SDS011;5056;44.272;19.892;2023-08-07T04:14:00;3.80;;;1.33;;
10031;SDS011;5056;44.272;19.892;2023-08-07T04:16:26;1.40;;;1.05;;
10031;SDS011;5056;44.272;19.892;2023-08-07T04:18:54;6.78;;;1.60;;
10031;SDS011;5056;44.272;19.892;2023-08-07T04:21:20;1.73;;;1.63;;
10031;SDS011;5056;44.272;19.892;2023-08-07T04:23:49;2.28;;;1.60;;
10031;SDS011;5056;44.272;19.892;2023-08-07T04:26:16;4.30;;;2.28;;
10031;SDS011;5056;44.272;19.892;2023-08-07T04:32:05;1.92;;;1.70;;
10031;SDS011;5056;44.272;19.892;2023-08-07T04:34:34;1.80;;;1.58;;
10031;SDS011;5056;44.272;19.892;2023-08-07T04:37:01;2.55;;;1.55;;
10031;SDS011;5056;44.272;19.892;2023-08-07T04:39:31;1.15;;;1.15;;
10031;SDS011;5056;44.272;19.892;2023-08-07T04:41:58;5.53;;;1.60;;
10031;SDS011;5056;44.272;19.892;2023-08-07T04:44:25;2.28;;;1.60;;
10031;SDS011;5056;44.272;19.892;2023-08-07T04:46:53;1.30;;;1.30;;
10031;SDS011;5056;44.272;19.892;2023-08-07T04:49:21;1.98;;;1.88;;
10031;SDS011;5056;44.272;19.892;2023-08-07T04:51:48;3.50;;;1.67;;
10031;SDS011;5056;44.272;19.892;2023-08-07T04:54:15;1.70;;;1.60;;
10031;SDS011;5056;44.272;19.892;2023-08-07T04:56:51;7.03;;;2.65;;
10031;SDS011;5056;44.272;19.892;2023-08-07T05:02:04;4.30;;;2.85;;
10031;SDS011;5056;44.272;19.892;2023-08-07T05:04:31;6.10;;;2.72;;
10031;SDS011;5056;44.272;19.892;2023-08-07T05:06:58;8.60;;;3.60;;
10031;SDS011;5056;44.272;19.892;2023-08-07T05:09:26;3.78;;;3.40;;
10031;SDS011;5056;44.272;19.892;2023-08-07T05:11:54;3.80;;;3.50;;
10031;SDS011;5056;44.272;19.892;2023-08-07T05:14:21;4.20;;;3.35;;
10031;SDS011;5056;44.272;19.892;2023-08-07T05:16:50;4.00;;;3.58;;
10031;SDS011;5056;44.272;19.892;2023-08-07T05:19:17;3.63;;;3.15;;
10031;SDS011;5056;44.272;19.892;2023-08-07T05:21:44;3.75;;;3.45;;
10031;SDS011;5056;44.272;19.892;2023-08-07T05:24:14;7.68;;;3.75;;
10031;SDS011;5056;44.272;19.892;2023-08-07T05:26:41;5.25;;;3.50;;
10031;SDS011;5056;44.272;19.892;2023-08-07T05:29:11;5.47;;;3.55;;
10031;SDS011;5056;44.272;19.892;2023-08-07T05:31:38;3.95;;;3.20;;
10031;SDS011;5056;44.272;19.892;2023-08-07T05:34:05;3.63;;;2.80;;
10031;SDS011;5056;44.272;19.892;2023-08-07T05:36:32;3.10;;;2.90;;
10031;SDS011;5056;44.272;19.892;2023-08-07T05:38:59;3.13;;;2.92;;
10031;SDS011;5056;44.272;19.892;2023-08-07T05:41:27;4.00;;;2.70;;
10031;SDS011;5056;44.272;19.892;2023-08-07T05:43:54;2.70;;;2.50;;
10031;SDS011;5056;44.272;19.892;2023-08-07T05:46:23;3.25;;;2.33;;
10031;SDS011;5056;44.272;19.892;2023-08-07T05:48:50;2.83;;;2.63;;
10031;SDS011;5056;44.272;19.892;2023-08-07T05:51:17;3.78;;;3.47;;
10031;SDS011;5056;44.272;19.892;2023-08-07T05:53:44;4.07;;;3.05;;
10031;SDS011;5056;44.272;19.892;2023-08-07T05:56:11;3.80;;;3.20;;
10031;SDS011;5056;44.272;19.892;2023-08-07T05:58:38;4.03;;;3.17;;
10031;SDS011;5056;44.272;19.892;2023-08-07T06:01:05;3.42;;;3.20;;
10031;SDS011;5056;44.272;19.892;2023-08-07T06:03:34;3.45;;;2.88;;
10031;SDS011;5056;44.272;19.892;2023-08-07T06:06:01;3.60;;;3.30;;
10031;SDS011;5056;44.272;19.892;2023-08-07T06:08:28;7.35;;;4.05;;
10031;SDS011;5056;44.272;19.892;2023-08-07T06:10:55;4.72;;;3.47;;
10031;SDS011;5056;44.272;19.892;2023-08-07T06:13:22;3.75;;;3.20;;
10031;SDS011;5056;44.272;19.892;2023-08-07T06:15:49;3.35;;;2.92;;
10031;SDS011;5056;44.272;19.892;2023-08-07T06:18:16;6.13;;;3.25;;
10031;SDS011;5056;44.272;19.892;2023-08-07T06:20:44;3.92;;;2.85;;
10031;SDS011;5056;44.272;19.892;2023-08-07T06:23:11;4.88;;;3.17;;
10031;SDS011;5056;44.272;19.892;2023-08-07T06:25:38;2.60;;;2.40;;
10031;SDS011;5056;44.272;19.892;2023-08-07T06:28:05;3.85;;;2.60;;
10031;SDS011;5056;44.272;19.892;2023-08-07T06:30:32;2.50;;;2.40;;
10031;SDS011;5056;44.272;19.892;2023-08-07T06:32:59;6.47;;;3.67;;
10031;SDS011;5056;44.272;19.892;2023-08-07T06:35:26;7.53;;;3.70;;
10031;SDS011;5056;44.272;19.892;2023-08-07T06:37:55;10.55;;;4.15;;
10031;SDS011;5056;44.272;19.892;2023-08-07T06:40:36;5.72;;;4.28;;
10031;SDS011;5056;44.272;19.892;2023-08-07T06:43:04;4.32;;;3.58;;
10031;SDS011;5056;44.272;19.892;2023-08-07T06:45:31;5.18;;;3.88;;
10031;SDS011;5056;44.272;19.892;2023-08-07T06:47:58;5.43;;;4.57;;
10031;SDS011;5056;44.272;19.892;2023-08-07T06:50:25;3.80;;;3.50;;
10031;SDS011;5056;44.272;19.892;2023-08-07T06:52:52;6.03;;;3.88;;
10031;SDS011;5056;44.272;19.892;2023-08-07T06:55:22;4.30;;;3.88;;
10031;SDS011;5056;44.272;19.892;2023-08-07T06:57:49;3.92;;;3.38;;
10031;SDS011;5056;44.272;19.892;2023-08-07T07:00:16;4.43;;;3.47;;
10031;SDS011;5056;44.272;19.892;2023-08-07T07:03:03;5.10;;;3.40;;
10031;SDS011;5056;44.272;19.892;2023-08-07T07:05:31;6.15;;;3.33;;
10031;SDS011;5056;44.272;19.892;2023-08-07T07:08:00;4.03;;;3.65;;
10031;SDS011;5056;44.272;19.892;2023-08-07T07:10:44;5.90;;;3.40;;
10031;SDS011;5056;44.272;19.892;2023-08-07T07:13:11;3.53;;;3.13;;
10031;SDS011;5056;44.272;19.892;2023-08-07T07:15:39;5.47;;;3.70;;
10031;SDS011;5056;44.272;19.892;2023-08-07T07:18:08;6.80;;;3.80;;
10031;SDS011;5056;44.272;19.892;2023-08-07T07:20:35;5.93;;;3.60;;
10031;SDS011;5056;44.272;19.892;2023-08-07T07:23:04;7.95;;;3.97;;
10031;SDS011;5056;44.272;19.892;2023-08-07T07:25:31;10.30;;;3.17;;
10031;SDS011;5056;44.272;19.892;2023-08-07T07:27:59;5.72;;;3.33;;
10031;SDS011;5056;44.272;19.892;2023-08-07T07:30:27;7.82;;;3.45;;
10031;SDS011;5056;44.272;19.892;2023-08-07T07:32:54;11.48;;;3.85;;
10031;SDS011;5056;44.272;19.892;2023-08-07T07:35:24;8.85;;;3.15;;
10031;SDS011;5056;44.272;19.892;2023-08-07T07:37:51;6.38;;;3.40;;
10031;SDS011;5056;44.272;19.892;2023-08-07T07:40:23;6.00;;;3.40;;
10031;SDS011;5056;44.272;19.892;2023-08-07T07:42:50;5.28;;;2.70;;
10031;SDS011;5056;44.272;19.892;2023-08-07T07:45:17;6.25;;;2.67;;
10031;SDS011;5056;44.272;19.892;2023-08-07T07:47:44;4.28;;;2.40;;
10031;SDS011;5056;44.272;19.892;2023-08-07T07:50:11;7.68;;;2.58;;
10031;SDS011;5056;44.272;19.892;2023-08-07T07:52:40;5.75;;;2.67;;
10031;SDS011;5056;44.272;19.892;2023-08-07T07:55:08;3.65;;;2.20;;
10031;SDS011;5056;44.272;19.892;2023-08-07T07:57:46;5.05;;;2.72;;
10031;SDS011;5056;44.272;19.892;2023-08-07T08:00:14;3.95;;;2.03;;
10031;SDS011;5056;44.272;19.892;2023-08-07T08:02:43;2.88;;;2.00;;
10031;SDS011;5056;44.272;19.892;2023-08-07T08:05:10;6.40;;;2.83;;
10031;SDS011;5056;44.272;19.892;2023-08-07T08:07:38;2.58;;;1.58;;
10031;SDS011;5056;44.272;19.892;2023-08-07T08:10:08;1.30;;;1.20;;
10031;SDS011;5056;44.272;19.892;2023-08-07T08:12:36;3.60;;;1.50;;
10031;SDS011;5056;44.272;19.892;2023-08-07T08:21:20;3.15;;;1.50;;
10031;SDS011;5056;44.272;19.892;2023-08-07T08:23:47;4.20;;;1.73;;
10031;SDS011;5056;44.272;19.892;2023-08-07T08:26:15;4.32;;;1.77;;
10031;SDS011;5056;44.272;19.892;2023-08-07T08:28:42;2.25;;;1.92;;
10031;SDS011;5056;44.272;19.892;2023-08-07T08:31:10;1.60;;;1.50;;
10031;SDS011;5056;44.272;19.892;2023-08-07T08:33:38;1.60;;;1.50;;
10031;SDS011;5056;44.272;19.892;2023-08-07T08:36:10;1.67;;;1.58;;
10031;SDS011;5056;44.272;19.892;2023-08-07T08:38:41;1.90;;;1.33;;
10031;SDS011;5056;44.272;19.892;2023-08-07T08:41:10;1.92;;;1.60;;
10031;SDS011;5056;44.272;19.892;2023-08-07T08:43:38;4.63;;;2.10;;
10031;SDS011;5056;44.272;19.892;2023-08-07T08:46:06;2.75;;;2.13;;
10031;SDS011;5056;44.272;19.892;2023-08-07T08:48:34;2.25;;;2.15;;
10031;SDS011;5056;44.272;19.892;2023-08-07T08:51:02;2.38;;;2.20;;
10031;SDS011;5056;44.272;19.892;2023-08-07T08:53:29;2.28;;;2.17;;
10031;SDS011;5056;44.272;19.892;2023-08-07T08:55:58;2.00;;;1.90;;
10031;SDS011;5056;44.272;19.892;2023-08-07T08:58:26;2.20;;;2.00;;
10031;SDS011;5056;44.272;19.892;2023-08-07T09:00:56;1.60;;;1.50;;
10031;SDS011;5056;44.272;19.892;2023-08-07T09:03:24;3.28;;;1.65;;
10031;SDS011;5056;44.272;19.892;2023-08-07T09:05:52;1.50;;;1.23;;
10031;SDS011;5056;44.272;19.892;2023-08-07T09:08:20;1.50;;;1.40;;
10031;SDS011;5056;44.272;19.892;2023-08-07T09:10:49;1.48;;;1.30;;
10031;SDS011;5056;44.272;19.892;2023-08-07T09:13:20;1.13;;;1.02;;
10031;SDS011;5056;44.272;19.892;2023-08-07T09:15:50;1.42;;;1.25;;
10031;SDS011;5056;44.272;19.892;2023-08-07T09:18:18;1.98;;;1.55;;
10031;SDS011;5056;44.272;19.892;2023-08-07T09:20:46;2.22;;;2.13;;
10031;SDS011;5056;44.272;19.892;2023-08-07T09:23:14;1.40;;;1.27;;
10031;SDS011;5056;44.272;19.892;2023-08-07T09:25:57;1.63;;;1.52;;
10031;SDS011;5056;44.272;19.892;2023-08-07T09:28:27;1.67;;;1.45;;
10031;SDS011;5056;44.272;19.892;2023-08-07T09:30:55;2.85;;;1.60;;
10031;SDS011;5056;44.272;19.892;2023-08-07T09:33:29;2.40;;;2.30;;
10031;SDS011;5056;44.272;19.892;2023-08-07T09:35:57;1.90;;;1.80;;
10031;SDS011;5056;44.272;19.892;2023-08-07T09:38:27;1.70;;;1.60;;
10031;SDS011;5056;44.272;19.892;2023-08-07T09:40:58;1.40;;;1.30;;
10031;SDS011;5056;44.272;19.892;2023-08-07T09:43:34;1.05;;;1.05;;
10031;SDS011;5056;44.272;19.892;2023-08-07T09:46:02;1.00;;;1.00;;
10031;SDS011;5056;44.272;19.892;2023-08-07T09:48:30;1.30;;;1.00;;
10031;SDS011;5056;44.272;19.892;2023-08-07T09:51:00;3.22;;;1.45;;
10031;SDS011;5056;44.272;19.892;2023-08-07T09:53:29;1.27;;;1.27;;
10031;SDS011;5056;44.272;19.892;2023-08-07T09:56:06;1.67;;;1.33;;
10031;SDS011;5056;44.272;19.892;2023-08-07T09:58:42;1.02;;;1.00;;
10031;SDS011;5056;44.272;19.892;2023-08-07T10:01:12;0.93;;;0.93;;
10031;SDS011;5056;44.272;19.892;2023-08-07T10:03:50;1.15;;;1.10;;
10031;SDS011;5056;44.272;19.892;2023-08-07T10:06:21;1.20;;;1.05;;
10031;SDS011;5056;44.272;19.892;2023-08-07T10:08:49;1.40;;;1.30;;
10031;SDS011;5056;44.272;19.892;2023-08-07T10:11:17;1.38;;;1.27;;
10031;SDS011;5056;44.272;19.892;2023-08-07T10:13:48;1.42;;;1.33;;
10031;SDS011;5056;44.272;19.892;2023-08-07T10:16:14;1.27;;;1.23;;
10031;SDS011;5056;44.272;19.892;2023-08-07T10:18:42;2.03;;;1.92;;
10031;SDS011;5056;44.272;19.892;2023-08-07T10:21:09;1.75;;;1.17;;
10031;SDS011;5056;44.272;19.892;2023-08-07T10:23:37;1.40;;;1.30;;
10031;SDS011;5056;44.272;19.892;2023-08-07T10:26:06;2.08;;;1.98;;
10031;SDS011;5056;44.272;19.892;2023-08-07T10:28:35;1.65;;;1.55;;
10031;SDS011;5056;44.272;19.892;2023-08-07T10:31:05;1.55;;;1.45;;
10031;SDS011;5056;44.272;19.892;2023-08-07T10:33:33;1.00;;;0.90;;
10031;SDS011;5056;44.272;19.892;2023-08-07T10:36:01;1.77;;;1.10;;
10031;SDS011;5056;44.272;19.892;2023-08-07T10:38:36;1.30;;;1.20;;
10031;SDS011;5056;44.272;19.892;2023-08-07T10:41:07;2.05;;;1.17;;
10031;SDS011;5056;44.272;19.892;2023-08-07T10:43:38;1.60;;;1.20;;
10031;SDS011;5056;44.272;19.892;2023-08-07T10:46:15;1.00;;;1.00;;
10031;SDS011;5056;44.272;19.892;2023-08-07T10:48:44;1.40;;;1.30;;
10031;SDS011;5056;44.272;19.892;2023-08-07T10:51:13;0.93;;;0.93;;
10031;SDS011;5056;44.272;19.892;2023-08-07T10:53:41;0.93;;;0.93;;
10031;SDS011;5056;44.272;19.892;2023-08-07T10:56:09;1.00;;;1.00;;
10031;SDS011;5056;44.272;19.892;2023-08-07T10:58:38;0.70;;;0.70;;
10031;SDS011;5056;44.272;19.892;2023-08-07T11:01:18;0.63;;;0.63;;
10031;SDS011;5056;44.272;19.892;2023-08-07T11:03:48;4.22;;;1.13;;
10031;SDS011;5056;44.272;19.892;2023-08-07T11:06:17;1.02;;;1.02;;
10031;SDS011;5056;44.272;19.892;2023-08-07T11:08:44;1.17;;;1.05;;
10031;SDS011;5056;44.272;19.892;2023-08-07T11:11:11;0.93;;;0.93;;
10031;SDS011;5056;44.272;19.892;2023-08-07T11:13:38;0.82;;;0.82;;
10031;SDS011;5056;44.272;19.892;2023-08-07T11:16:06;1.00;;;1.00;;
10031;SDS011;5056;44.272;19.892;2023-08-07T11:18:36;0.90;;;0.90;;
10031;SDS011;5056;44.272;19.892;2023-08-07T11:21:06;0.68;;;0.68;;
10031;SDS011;5056;44.272;19.892;2023-08-07T11:23:33;6.18;;;2.03;;
10031;SDS011;5056;44.272;19.892;2023-08-07T11:26:00;1.60;;;1.15;;
10031;SDS011;5056;44.272;19.892;2023-08-07T11:28:29;1.55;;;1.48;;
10031;SDS011;5056;44.272;19.892;2023-08-07T11:30:59;0.90;;;0.90;;
10031;SDS011;5056;44.272;19.892;2023-08-07T11:33:27;1.23;;;1.23;;
10031;SDS011;5056;44.272;19.892;2023-08-07T11:35:57;1.02;;;1.02;;
10031;SDS011;5056;44.272;19.892;2023-08-07T11:38:31;2.25;;;1.20;;
10031;SDS011;5056;44.272;19.892;2023-08-07T11:40:59;1.42;;;1.33;;
10031;SDS011;5056;44.272;19.892;2023-08-07T11:43:27;2.28;;;1.35;;
10031;SDS011;5056;44.272;19.892;2023-08-07T11:45:56;2.90;;;1.35;;
10031;SDS011;5056;44.272;19.892;2023-08-07T11:48:24;3.95;;;1.77;;
10031;SDS011;5056;44.272;19.892;2023-08-07T11:50:52;1.83;;;1.52;;
10031;SDS011;5056;44.272;19.892;2023-08-07T11:53:22;3.33;;;1.80;;
10031;SDS011;5056;44.272;19.892;2023-08-07T11:55:54;2.70;;;1.45;;
10031;SDS011;5056;44.272;19.892;2023-08-07T11:58:27;1.55;;;1.45;;
10031;SDS011;5056;44.272;19.892;2023-08-07T12:00:54;1.10;;;1.10;;
10031;SDS011;5056;44.272;19.892;2023-08-07T12:03:25;1.35;;;1.25;;
10031;SDS011;5056;44.272;19.892;2023-08-07T12:05:52;1.10;;;1.10;;
10031;SDS011;5056;44.272;19.892;2023-08-07T12:08:30;1.55;;;1.45;;
10031;SDS011;5056;44.272;19.892;2023-08-07T12:11:01;1.50;;;1.40;;
10031;SDS011;5056;44.272;19.892;2023-08-07T12:13:28;1.33;;;1.30;;
10031;SDS011;5056;44.272;19.892;2023-08-07T12:15:57;3.20;;;2.90;;
10031;SDS011;5056;44.272;19.892;2023-08-07T12:18:26;1.80;;;1.70;;
10031;SDS011;5056;44.272;19.892;2023-08-07T12:20:57;2.13;;;2.03;;
10031;SDS011;5056;44.272;19.892;2023-08-07T12:23:27;2.75;;;1.60;;
10031;SDS011;5056;44.272;19.892;2023-08-07T12:25:54;1.85;;;1.40;;
10031;SDS011;5056;44.272;19.892;2023-08-07T12:28:21;1.80;;;1.70;;
10031;SDS011;5056;44.272;19.892;2023-08-07T12:30:51;1.30;;;1.20;;
10031;SDS011;5056;44.272;19.892;2023-08-07T12:33:20;1.45;;;1.35;;
10031;SDS011;5056;44.272;19.892;2023-08-07T12:35:49;1.50;;;1.40;;
10031;SDS011;5056;44.272;19.892;2023-08-07T12:38:16;1.63;;;1.30;;
10031;SDS011;5056;44.272;19.892;2023-08-07T12:40:46;1.60;;;1.50;;
10031;SDS011;5056;44.272;19.892;2023-08-07T12:43:14;1.33;;;1.33;;
10031;SDS011;5056;44.272;19.892;2023-08-07T12:45:41;1.20;;;1.20;;
10031;SDS011;5056;44.272;19.892;2023-08-07T12:48:08;1.25;;;1.15;;
10031;SDS011;5056;44.272;19.892;2023-08-07T12:50:39;0.60;;;0.60;;
10031;SDS011;5056;44.272;19.892;2023-08-07T12:53:06;2.20;;;1.05;;
10031;SDS011;5056;44.272;19.892;2023-08-07T12:55:37;0.98;;;0.77;;
10031;SDS011;5056;44.272;19.892;2023-08-07T12:58:06;0.90;;;0.90;;
10031;SDS011;5056;44.272;19.892;2023-08-07T13:00:33;1.10;;;0.93;;
10031;SDS011;5056;44.272;19.892;2023-08-07T13:03:01;0.90;;;0.90;;
10031;SDS011;5056;44.272;19.892;2023-08-07T13:05:28;0.80;;;0.80;;
10031;SDS011;5056;44.272;19.892;2023-08-07T13:07:55;1.35;;;1.20;;
10031;SDS011;5056;44.272;19.892;2023-08-07T13:10:25;1.50;;;1.27;;
10031;SDS011;5056;44.272;19.892;2023-08-07T13:12:56;1.17;;;1.10;;
10031;SDS011;5056;44.272;19.892;2023-08-07T13:15:25;1.60;;;1.50;;
10031;SDS011;5056;44.272;19.892;2023-08-07T13:17:54;1.10;;;1.10;;
10031;SDS011;5056;44.272;19.892;2023-08-07T13:20:22;1.42;;;1.33;;
10031;SDS011;5056;44.272;19.892;2023-08-07T13:22:51;1.00;;;1.00;;
10031;SDS011;5056;44.272;19.892;2023-08-07T13:25:18;2.05;;;1.90;;
10031;SDS011;5056;44.272;19.892;2023-08-07T13:27:46;1.92;;;1.80;;
10031;SDS011;5056;44.272;19.892;2023-08-07T13:30:13;2.78;;;1.58;;
10031;SDS011;5056;44.272;19.892;2023-08-07T13:32:44;1.00;;;1.00;;
10031;SDS011;5056;44.272;19.892;2023-08-07T13:35:11;1.88;;;1.67;;
10031;SDS011;5056;44.272;19.892;2023-08-07T13:37:44;2.08;;;1.40;;
10031;SDS011;5056;44.272;19.892;2023-08-07T13:40:11;1.52;;;1.42;;
10031;SDS011;5056;44.272;19.892;2023-08-07T13:42:41;1.95;;;1.85;;
10031;SDS011;5056;44.272;19.892;2023-08-07T13:45:09;2.92;;;1.52;;
10031;SDS011;5056;44.272;19.892;2023-08-07T13:47:36;1.58;;;1.48;;
10031;SDS011;5056;44.272;19.892;2023-08-07T13:50:09;2.60;;;1.65;;
10031;SDS011;5056;44.272;19.892;2023-08-07T13:52:38;1.48;;;1.45;;
10031;SDS011;5056;44.272;19.892;2023-08-07T13:55:16;2.00;;;1.90;;
10031;SDS011;5056;44.272;19.892;2023-08-07T13:57:47;2.58;;;2.40;;
10031;SDS011;5056;44.272;19.892;2023-08-07T14:00:19;2.30;;;2.20;;
10031;SDS011;5056;44.272;19.892;2023-08-07T14:02:47;1.98;;;1.88;;
10031;SDS011;5056;44.272;19.892;2023-08-07T14:05:17;3.10;;;2.90;;
10031;SDS011;5056;44.272;19.892;2023-08-07T14:07:52;2.75;;;2.55;;
10031;SDS011;5056;44.272;19.892;2023-08-07T14:10:22;2.80;;;2.60;;
10031;SDS011;5056;44.272;19.892;2023-08-07T14:12:53;2.65;;;2.13;;
10031;SDS011;5056;44.272;19.892;2023-08-07T14:15:20;2.05;;;1.90;;
10031;SDS011;5056;44.272;19.892;2023-08-07T14:17:47;2.67;;;2.25;;
10031;SDS011;5056;44.272;19.892;2023-08-07T14:23:26;1.80;;;1.70;;
10031;SDS011;5056;44.272;19.892;2023-08-07T14:25:55;8.43;;;3.17;;
10031;SDS011;5056;44.272;19.892;2023-08-07T14:28:22;2.50;;;2.38;;
10031;SDS011;5056;44.272;19.892;2023-08-07T14:30:53;4.78;;;2.70;;
10031;SDS011;5056;44.272;19.892;2023-08-07T14:33:23;3.05;;;2.70;;
10031;SDS011;5056;44.272;19.892;2023-08-07T14:35:52;3.38;;;3.13;;
10031;SDS011;5056;44.272;19.892;2023-08-07T14:38:19;3.13;;;2.90;;
10031;SDS011;5056;44.272;19.892;2023-08-07T14:40:47;2.80;;;2.60;;
10031;SDS011;5056;44.272;19.892;2023-08-07T14:43:15;5.55;;;2.90;;
10031;SDS011;5056;44.272;19.892;2023-08-07T14:45:43;2.85;;;2.67;;
10031;SDS011;5056;44.272;19.892;2023-08-07T14:48:09;3.47;;;2.25;;
10031;SDS011;5056;44.272;19.892;2023-08-07T14:50:39;2.40;;;2.20;;
10031;SDS011;5056;44.272;19.892;2023-08-07T14:53:11;2.60;;;2.25;;
10031;SDS011;5056;44.272;19.892;2023-08-07T14:55:40;2.63;;;1.90;;
10031;SDS011;5056;44.272;19.892;2023-08-07T14:58:08;4.25;;;3.22;;
10031;SDS011;5056;44.272;19.892;2023-08-07T15:00:37;4.15;;;3.28;;
10031;SDS011;5056;44.272;19.892;2023-08-07T15:03:04;3.00;;;2.80;;
10031;SDS011;5056;44.272;19.892;2023-08-07T15:05:32;2.92;;;2.72;;
10031;SDS011;5056;44.272;19.892;2023-08-07T15:08:03;4.80;;;3.20;;
10031;SDS011;5056;44.272;19.892;2023-08-07T15:10:39;5.18;;;2.88;;
10031;SDS011;5056;44.272;19.892;2023-08-07T15:15:53;2.20;;;2.00;;
10031;SDS011;5056;44.272;19.892;2023-08-07T15:18:20;2.00;;;1.90;;
10031;SDS011;5056;44.272;19.892;2023-08-07T15:21:06;3.05;;;2.70;;
10031;SDS011;5056;44.272;19.892;2023-08-07T15:23:37;6.60;;;2.97;;
10031;SDS011;5056;44.272;19.892;2023-08-07T15:26:06;3.85;;;2.58;;